Blackford, Kentucky
Current Conditions -  °F | °C
As of 7:35 AM on Monday 22 Dec 2014 (Local Time) from K5M9 Reporting Station
Overcast Overcast  
Wind Chill: 41°   Ceiling: 1400
Heat Index: 45°   Visibility: 7mi
Dew Point: 43°   Wind: 7mph
Humidity: 93%   Direction: 160°SSE
Pressure: 29.88"   Gusts: NA
Location:  37.45°N, 87.94°W
Report Text: K5M9 221335Z AUTO 16006KT 7SM OVC014 07/06 A2988 RMK AO2 T00700059
Loading
Personal Weather Stations






























Interactive Weather Map New forecast layout! Learn more

10-Day Weather Forecast

Advertisements
Track Severe Weather on mobile